createdAt,value
2018-09-08T00:00:42.269Z,3.57
2018-09-08T00:03:11.157Z,6.07
2018-09-08T00:05:40.052Z,16.83
2018-09-08T00:08:08.928Z,8.93
2018-09-08T00:10:37.816Z,4.33
2018-09-08T00:13:07.887Z,2.20
2018-09-08T00:15:43.770Z,4.93
2018-09-08T00:18:21.107Z,6.10
2018-09-08T00:20:55.581Z,3.00
2018-09-08T00:23:29.789Z,5.90
2018-09-08T00:26:06.300Z,3.93
2018-09-08T00:28:41.209Z,5.37
2018-09-08T00:31:20.257Z,3.30
2018-09-08T00:33:49.578Z,2.77
2018-09-08T00:36:18.639Z,4.67
2018-09-08T00:38:47.145Z,2.93
2018-09-08T00:41:15.674Z,4.97
2018-09-08T00:43:44.453Z,5.17
2018-09-08T00:46:13.381Z,2.63
2018-09-08T00:48:42.421Z,4.30
2018-09-08T00:51:10.937Z,3.03
2018-09-08T00:53:40.138Z,3.57
2018-09-08T00:56:08.671Z,6.50
2018-09-08T00:58:37.202Z,9.13
2018-09-08T01:01:05.992Z,6.00
2018-09-08T01:03:34.502Z,5.53
2018-09-08T01:06:03.052Z,5.40
2018-09-08T01:08:31.582Z,4.90
2018-09-08T01:11:00.220Z,3.20
2018-09-08T01:13:28.750Z,3.83
2018-09-08T01:15:57.257Z,5.37
2018-09-08T01:18:25.976Z,2.10
2018-09-08T01:20:54.522Z,3.20
2018-09-08T01:23:25.457Z,5.83
2018-09-08T01:25:56.464Z,5.53
2018-09-08T01:28:28.054Z,6.57
2018-09-08T01:30:56.633Z,6.93
2018-09-08T01:33:26.457Z,5.07
2018-09-08T01:35:56.969Z,3.40
2018-09-08T01:38:27.557Z,3.03
2018-09-08T01:40:56.110Z,3.33
2018-09-08T01:43:24.821Z,3.70
2018-09-08T01:45:54.306Z,3.40
2018-09-08T01:48:23.578Z,5.77
2018-09-08T01:50:54.365Z,3.87
2018-09-08T01:53:23.351Z,5.47
2018-09-08T01:55:52.875Z,4.53
2018-09-08T01:58:25.367Z,6.97
2018-09-08T02:00:53.920Z,7.47
2018-09-08T02:03:22.728Z,4.17
2018-09-08T02:05:51.392Z,3.93
2018-09-08T02:08:19.949Z,3.63
2018-09-08T02:10:49.146Z,2.20
2018-09-08T02:13:17.677Z,8.67
2018-09-08T02:15:46.181Z,2.87
2018-09-08T02:18:15.129Z,7.63
2018-09-08T02:20:44.832Z,3.90
2018-09-08T02:23:14.031Z,5.23
2018-09-08T02:25:42.576Z,6.37
2018-09-08T02:28:12.861Z,4.67
2018-09-08T02:30:41.733Z,4.70
2018-09-08T02:33:10.408Z,4.83
2018-09-08T02:35:39.619Z,3.87
2018-09-08T02:38:08.143Z,3.93
2018-09-08T02:40:36.685Z,4.67
2018-09-08T02:43:06.820Z,4.03
2018-09-08T02:45:36.265Z,3.50
2018-09-08T02:48:04.846Z,5.23
2018-09-08T02:50:36.083Z,3.67
2018-09-08T02:53:04.625Z,3.23
2018-09-08T02:55:33.757Z,2.80
2018-09-08T02:58:01.175Z,2.50
2018-09-08T03:00:28.958Z,4.87
2018-09-08T03:02:56.353Z,5.47
2018-09-08T03:05:24.706Z,3.17
2018-09-08T03:07:52.230Z,5.17
2018-09-08T03:10:20.825Z,5.57
2018-09-08T03:12:48.243Z,3.37
2018-09-08T03:15:17.524Z,2.60
2018-09-08T03:17:45.700Z,6.63
2018-09-08T03:20:13.109Z,4.03
2018-09-08T03:22:41.040Z,5.83
2018-09-08T03:25:09.353Z,2.50
2018-09-08T03:27:37.112Z,6.47
2018-09-08T03:30:04.494Z,3.07
2018-09-08T03:32:32.674Z,6.60
2018-09-08T03:35:00.411Z,6.17
2018-09-08T03:37:28.480Z,3.00
2018-09-08T03:39:59.321Z,5.10
2018-09-08T03:42:28.472Z,3.73
2018-09-08T03:44:55.875Z,3.27
2018-09-08T03:47:25.650Z,4.03
2018-09-08T03:49:56.213Z,3.83
2018-09-08T03:52:24.285Z,2.80
2018-09-08T03:54:52.824Z,5.20
2018-09-08T03:57:22.014Z,5.67
2018-09-08T03:59:49.393Z,3.00
2018-09-08T04:02:17.953Z,2.10
2018-09-08T04:04:50.669Z,4.97
2018-09-08T04:07:19.606Z,2.10
2018-09-08T04:09:48.177Z,7.00
2018-09-08T04:12:16.716Z,3.90
2018-09-08T04:14:45.289Z,6.23
2018-09-08T04:17:14.162Z,4.37
2018-09-08T04:19:43.417Z,5.80
2018-09-08T04:22:12.814Z,6.33
2018-09-08T04:24:45.477Z,3.90
2018-09-08T04:27:15.310Z,3.97
2018-09-08T04:29:43.829Z,3.23
2018-09-08T04:32:12.379Z,4.03
2018-09-08T04:34:46.059Z,3.43
2018-09-08T04:37:16.610Z,5.20
2018-09-08T04:39:46.899Z,3.70
2018-09-08T04:42:22.138Z,2.70
2018-09-08T04:44:55.845Z,5.17
2018-09-08T04:47:27.994Z,4.93
2018-09-08T04:49:56.543Z,3.80
2018-09-08T04:52:25.190Z,7.77
2018-09-08T04:54:53.709Z,4.33
2018-09-08T04:57:22.226Z,6.10
2018-09-08T04:59:50.813Z,5.57
2018-09-08T05:02:19.352Z,7.00
2018-09-08T05:04:47.870Z,6.30
2018-09-08T05:07:16.453Z,3.87
2018-09-08T05:09:45.426Z,4.07
2018-09-08T05:12:14.014Z,2.93
2018-09-08T05:14:42.618Z,5.90
2018-09-08T05:17:11.297Z,4.53
2018-09-08T05:19:39.802Z,4.73
2018-09-08T05:22:09.348Z,3.77
2018-09-08T05:24:37.902Z,3.67
2018-09-08T05:27:06.554Z,5.03
2018-09-08T05:29:35.253Z,3.93
2018-09-08T05:32:04.390Z,5.40
2018-09-08T05:34:32.918Z,5.23
2018-09-08T05:37:02.589Z,3.53
2018-09-08T05:39:32.220Z,10.33
2018-09-08T05:42:02.550Z,5.27
2018-09-08T05:44:32.673Z,8.40
2018-09-08T05:47:03.276Z,5.27
2018-09-08T05:49:32.210Z,6.43
2018-09-08T05:52:02.032Z,11.17
2018-09-08T05:54:31.470Z,8.67
2018-09-08T05:57:03.842Z,7.07
2018-09-08T05:59:32.394Z,4.47
2018-09-08T06:02:03.243Z,8.43
2018-09-08T06:04:33.421Z,10.40
2018-09-08T06:07:02.810Z,10.40
2018-09-08T06:09:33.155Z,9.73
2018-09-08T06:12:02.221Z,15.10
2018-09-08T06:14:31.850Z,10.13
2018-09-08T06:17:03.712Z,10.67
2018-09-08T06:19:33.216Z,8.97
2018-09-08T06:22:02.302Z,7.97
2018-09-08T06:24:31.030Z,11.90
2018-09-08T06:26:59.550Z,11.63
2018-09-08T06:29:28.438Z,10.80
2018-09-08T06:31:58.150Z,15.17
2018-09-08T06:34:27.563Z,14.20
2018-09-08T06:36:59.380Z,9.90
2018-09-08T06:39:32.158Z,11.00
2018-09-08T06:42:01.209Z,9.97
2018-09-08T06:44:30.104Z,15.43
2018-09-08T06:47:02.893Z,15.43
2018-09-08T06:49:31.438Z,10.93
2018-09-08T06:52:00.021Z,12.30
2018-09-08T06:54:28.579Z,11.87
2018-09-08T06:56:57.364Z,10.87
2018-09-08T06:59:25.949Z,11.07
2018-09-08T07:01:54.681Z,10.80
2018-09-08T07:04:23.218Z,8.90
2018-09-08T07:06:51.764Z,10.97
2018-09-08T07:09:20.750Z,10.63
2018-09-08T07:11:49.337Z,10.87
2018-09-08T07:14:17.894Z,10.23
2018-09-08T07:16:46.512Z,7.40
2018-09-08T07:19:15.069Z,9.50
2018-09-08T07:21:44.174Z,9.10
2018-09-08T07:24:13.777Z,7.20
2018-09-08T07:26:42.336Z,6.57
2018-09-08T07:29:11.821Z,9.37
2018-09-08T07:31:40.361Z,14.13
2018-09-08T07:34:08.932Z,10.47
2018-09-08T07:36:37.533Z,10.40
2018-09-08T07:39:08.873Z,10.10
2018-09-08T07:41:39.638Z,7.77
2018-09-08T07:44:09.149Z,8.30
2018-09-08T07:46:40.753Z,8.10
2018-09-08T07:49:11.053Z,5.67
2018-09-08T07:51:39.582Z,7.50
2018-09-08T07:54:08.786Z,6.40
2018-09-08T07:56:38.875Z,9.80
2018-09-08T07:59:08.111Z,7.67
2018-09-08T08:01:37.953Z,6.80
2018-09-08T08:04:06.497Z,6.27
2018-09-08T08:06:35.602Z,8.37
2018-09-08T08:09:04.686Z,9.03
2018-09-08T08:11:33.782Z,6.17
2018-09-08T08:14:02.870Z,5.93
2018-09-08T08:16:33.680Z,13.13
2018-09-08T08:19:02.309Z,27.20
2018-09-08T08:21:30.922Z,7.80
2018-09-08T08:23:59.459Z,8.27
2018-09-08T08:26:27.981Z,9.33
2018-09-08T08:28:57.093Z,5.67
2018-09-08T08:31:26.664Z,5.43
2018-09-08T08:33:55.609Z,3.07
2018-09-08T08:36:30.085Z,3.87
2018-09-08T08:38:58.626Z,4.27
2018-09-08T08:41:27.150Z,7.97
2018-09-08T08:43:55.656Z,3.83
2018-09-08T08:46:24.230Z,5.57
2018-09-08T08:48:52.742Z,5.00
2018-09-08T08:51:32.378Z,12.40
2018-09-08T08:54:12.004Z,5.30
2018-09-08T08:56:40.550Z,7.67
2018-09-08T08:59:09.084Z,3.60
2018-09-08T09:01:37.646Z,5.20
2018-09-08T09:04:06.287Z,7.27
2018-09-08T09:06:35.479Z,7.00
2018-09-08T09:09:06.406Z,9.03
2018-09-08T09:11:35.498Z,5.67
2018-09-08T09:14:03.590Z,6.10
2018-09-08T09:16:32.225Z,4.63
2018-09-08T09:19:25.663Z,6.17
2018-09-08T09:24:18.652Z,4.97
2018-09-08T09:26:48.126Z,6.08
2018-09-08T09:29:47.193Z,4.10
2018-09-08T09:32:16.137Z,3.33
2018-09-08T09:34:47.215Z,4.63
2018-09-08T09:37:16.113Z,4.70
2018-09-08T09:39:44.645Z,4.13
2018-09-08T09:42:13.816Z,3.87
2018-09-08T09:44:42.392Z,4.53
2018-09-08T09:47:13.040Z,5.00
2018-09-08T09:49:41.577Z,2.83
2018-09-08T09:52:11.677Z,3.67
2018-09-08T09:54:40.375Z,4.23
2018-09-08T09:57:08.967Z,4.77
2018-09-08T09:59:37.537Z,3.13
2018-09-08T10:02:12.021Z,5.90
2018-09-08T10:04:40.570Z,5.67
2018-09-08T10:07:09.924Z,3.77
2018-09-08T10:09:40.142Z,7.33
2018-09-08T10:12:08.701Z,4.93
2018-09-08T10:14:37.217Z,4.07
2018-09-08T10:17:05.821Z,3.30
2018-09-08T10:19:34.405Z,5.90
2018-09-08T10:22:02.927Z,6.67
2018-09-08T10:24:32.249Z,3.43
2018-09-08T10:27:00.762Z,5.20
2018-09-08T10:29:29.412Z,4.70
2018-09-08T10:31:57.849Z,5.07
2018-09-08T10:34:26.382Z,3.60
2018-09-08T10:36:54.914Z,1.60
2018-09-08T10:39:23.997Z,4.93
2018-09-08T10:41:52.575Z,3.10
2018-09-08T10:44:21.081Z,5.73
2018-09-08T10:46:49.818Z,5.47
2018-09-08T10:56:22.783Z,3.50
2018-09-08T10:58:52.669Z,4.27
2018-09-08T11:01:21.489Z,4.73
2018-09-08T11:03:53.293Z,3.87
2018-09-08T11:06:21.829Z,4.17
2018-09-08T11:08:50.364Z,2.87
2018-09-08T11:11:19.594Z,1.10
2018-09-08T11:13:48.118Z,1.93
2018-09-08T11:16:16.642Z,3.80
2018-09-08T11:18:45.192Z,4.50
2018-09-08T11:21:13.737Z,6.80
2018-09-08T11:23:42.583Z,4.60
2018-09-08T11:26:13.606Z,1.83
2018-09-08T11:28:42.741Z,3.33
2018-09-08T11:31:12.377Z,2.80
2018-09-08T11:33:40.928Z,2.57
2018-09-08T11:36:09.481Z,2.53
2018-09-08T11:38:38.022Z,6.87
2018-09-08T11:41:06.622Z,3.80
2018-09-08T11:43:35.251Z,2.10
2018-09-08T11:46:04.151Z,6.17
2018-09-08T11:48:32.757Z,5.37
2018-09-08T11:51:01.488Z,5.13
2018-09-08T11:53:30.005Z,2.87
2018-09-08T11:55:58.594Z,3.97
2018-09-08T11:58:27.111Z,6.67
2018-09-08T12:00:55.781Z,2.60
2018-09-08T12:03:24.337Z,2.80
2018-09-08T12:05:52.879Z,3.73
2018-09-08T12:08:22.018Z,3.37
2018-09-08T12:10:51.262Z,2.90
2018-09-08T12:13:19.801Z,3.23
2018-09-08T12:15:48.324Z,4.77
2018-09-08T12:18:16.834Z,3.43
2018-09-08T12:20:45.590Z,2.93
2018-09-08T12:23:14.137Z,3.20
2018-09-08T12:25:42.660Z,3.20
2018-09-08T12:28:11.173Z,3.67
2018-09-08T12:30:40.120Z,4.37
2018-09-08T12:33:08.970Z,2.98
2018-09-08T12:35:37.517Z,4.53
2018-09-08T12:38:06.044Z,4.60
2018-09-08T12:40:34.581Z,2.40
2018-09-08T12:43:03.105Z,1.90
2018-09-08T12:45:31.786Z,2.77
2018-09-08T12:48:00.314Z,3.43
2018-09-08T12:50:28.832Z,3.47
2018-09-08T12:52:57.354Z,4.03
2018-09-08T12:55:25.870Z,1.87
2018-09-08T12:57:54.671Z,4.03
2018-09-08T13:00:23.285Z,3.63
2018-09-08T13:02:51.814Z,5.10
2018-09-08T13:05:20.332Z,3.30
2018-09-08T13:07:49.325Z,2.53
2018-09-08T13:10:18.135Z,4.40
2018-09-08T13:12:46.669Z,5.20
2018-09-08T13:15:16.126Z,3.10
2018-09-08T13:17:45.378Z,5.20
2018-09-08T13:20:13.964Z,4.87
2018-09-08T13:22:42.562Z,2.50
2018-09-08T13:25:12.947Z,1.80
2018-09-08T13:27:41.502Z,3.03
2018-09-08T13:30:10.474Z,3.43
2018-09-08T13:32:39.084Z,5.20
2018-09-08T13:35:07.722Z,3.27
2018-09-08T13:37:36.323Z,1.40
2018-09-08T13:40:04.870Z,2.67
2018-09-08T13:42:33.552Z,4.73
2018-09-08T13:45:02.130Z,5.80
2018-09-08T13:47:30.678Z,5.47
2018-09-08T13:49:59.205Z,2.43
2018-09-08T13:52:28.093Z,4.70
2018-09-08T13:54:57.106Z,4.33
2018-09-08T13:57:25.618Z,3.83
2018-09-08T13:59:54.805Z,3.73
2018-09-08T14:02:23.358Z,5.73
2018-09-08T14:04:52.436Z,2.37
2018-09-08T14:07:21.038Z,2.53
2018-09-08T14:09:50.625Z,2.23
2018-09-08T14:12:19.209Z,2.10
2018-09-08T14:14:50.016Z,3.53
2018-09-08T14:17:19.198Z,1.47
2018-09-08T14:19:47.714Z,7.57
2018-09-08T14:22:16.259Z,2.33
2018-09-08T14:24:44.850Z,3.17
2018-09-08T14:27:13.379Z,1.93
2018-09-08T14:29:41.923Z,2.73
2018-09-08T14:32:11.434Z,2.90
2018-09-08T14:34:40.290Z,1.37
2018-09-08T14:37:08.846Z,3.33
2018-09-08T14:39:38.422Z,2.70
2018-09-08T14:42:06.965Z,3.80
2018-09-08T14:44:35.507Z,3.47
2018-09-08T14:47:04.069Z,1.50
2018-09-08T14:49:32.642Z,1.87
2018-09-08T14:52:01.162Z,3.23
2018-09-08T14:54:29.752Z,2.67
2018-09-08T14:56:58.331Z,3.63
2018-09-08T14:59:27.504Z,3.67
2018-09-08T15:01:56.030Z,0.40
2018-09-08T15:04:24.546Z,1.87
2018-09-08T15:06:53.583Z,1.57
2018-09-08T15:09:22.339Z,3.00
2018-09-08T15:11:50.978Z,3.43
2018-09-08T15:14:19.554Z,1.40
2018-09-08T15:16:48.066Z,4.10
2018-09-08T15:19:17.150Z,2.10
2018-09-08T15:21:45.760Z,2.00
2018-09-08T15:24:14.361Z,2.10
2018-09-08T15:26:43.589Z,2.97
2018-09-08T15:29:12.198Z,1.63
2018-09-08T15:31:41.137Z,1.03
2018-09-08T15:34:09.730Z,1.57
2018-09-08T15:36:38.301Z,2.87
2018-09-08T15:39:09.198Z,2.12
2018-09-08T15:41:38.465Z,2.50
2018-09-08T15:44:07.627Z,3.62
2018-09-08T15:46:36.204Z,0.73
2018-09-08T15:49:05.770Z,3.57
2018-09-08T15:51:34.545Z,2.87
2018-09-08T15:54:03.114Z,3.27
2018-09-08T15:56:31.802Z,2.43
2018-09-08T15:59:02.402Z,2.33
2018-09-08T16:01:31.170Z,2.70
2018-09-08T16:03:59.892Z,4.47
2018-09-08T16:06:28.456Z,3.27
2018-09-08T16:08:57.121Z,3.10
2018-09-08T16:11:25.741Z,1.90
2018-09-08T16:13:55.163Z,5.73
2018-09-08T16:16:23.839Z,2.83
2018-09-08T16:18:54.622Z,1.80
2018-09-08T16:21:27.317Z,2.80
2018-09-08T16:23:58.289Z,1.10
2018-09-08T16:26:27.406Z,4.07
2018-09-08T16:28:56.072Z,2.73
2018-09-08T16:31:24.616Z,1.07
2018-09-08T16:33:53.235Z,1.33
2018-09-08T16:36:21.798Z,3.63
2018-09-08T16:38:50.381Z,2.47
2018-09-08T16:41:19.634Z,3.73
2018-09-08T16:43:48.190Z,2.43
2018-09-08T16:46:18.082Z,3.03
2018-09-08T16:48:48.442Z,1.73
2018-09-08T16:51:18.051Z,2.70
2018-09-08T16:53:47.190Z,3.37
2018-09-08T16:56:15.761Z,1.73
2018-09-08T16:58:44.303Z,2.10
2018-09-08T17:01:13.910Z,4.80
2018-09-08T17:03:42.486Z,1.00
2018-09-08T17:06:11.050Z,3.40
2018-09-08T17:08:39.585Z,2.37
2018-09-08T17:11:08.139Z,4.37
2018-09-08T17:13:36.762Z,3.43
2018-09-08T17:16:06.181Z,3.73
2018-09-08T17:18:36.885Z,3.23
2018-09-08T17:21:07.078Z,2.17
2018-09-08T17:23:36.675Z,1.47
2018-09-08T17:26:05.269Z,2.57
2018-09-08T17:28:34.094Z,4.00
2018-09-08T17:31:02.619Z,2.35
2018-09-08T17:33:31.674Z,1.62
2018-09-08T17:36:03.646Z,1.40
2018-09-08T17:38:33.006Z,2.10
2018-09-08T17:41:02.510Z,1.00
2018-09-08T17:43:36.582Z,3.07
2018-09-08T17:46:07.131Z,2.00
2018-09-08T17:48:40.713Z,1.50
2018-09-08T17:51:09.246Z,1.13
2018-09-08T17:53:37.839Z,1.63
2018-09-08T17:56:06.465Z,1.43
2018-09-08T17:58:35.750Z,1.93
2018-09-08T18:01:04.783Z,5.27
2018-09-08T18:03:33.714Z,3.43
2018-09-08T18:06:02.393Z,2.20
2018-09-08T18:08:30.917Z,2.23
2018-09-08T18:10:59.492Z,2.37
2018-09-08T18:13:28.732Z,4.63
2018-09-08T18:15:59.758Z,5.10
2018-09-08T18:18:29.422Z,2.60
2018-09-08T18:20:57.982Z,2.97
2018-09-08T18:23:26.560Z,4.73
2018-09-08T18:25:55.482Z,1.83
2018-09-08T18:28:24.015Z,2.97
2018-09-08T18:30:52.634Z,1.93
2018-09-08T18:33:21.263Z,3.20
2018-09-08T18:35:53.318Z,3.20
2018-09-08T18:38:23.031Z,3.10
2018-09-08T18:40:51.632Z,2.67
2018-09-08T18:43:20.586Z,2.70
2018-09-08T18:45:49.169Z,2.57
2018-09-08T18:48:17.848Z,5.30
2018-09-08T18:50:46.407Z,3.57
2018-09-08T18:53:15.910Z,3.90
2018-09-08T18:55:44.486Z,4.03
2018-09-08T18:58:13.082Z,5.60
2018-09-08T19:00:41.750Z,6.13
2018-09-08T19:04:35.405Z,7.43
2018-09-08T19:07:04.567Z,15.10
2018-09-08T19:09:33.318Z,10.30
2018-09-08T19:12:01.962Z,8.50
2018-09-08T19:14:35.857Z,9.03
2018-09-08T19:17:04.463Z,6.93
2018-09-08T19:19:33.054Z,2.87
2018-09-08T19:22:01.635Z,3.33
2018-09-08T19:24:35.529Z,3.53
2018-09-08T19:27:04.114Z,4.47
2018-09-08T19:29:38.127Z,6.37
2018-09-08T19:32:06.778Z,5.53
2018-09-08T19:34:35.301Z,5.20
2018-09-08T19:37:04.755Z,6.97
2018-09-08T19:39:33.278Z,6.37
2018-09-08T19:42:01.909Z,5.00
2018-09-08T19:44:30.753Z,4.43
2018-09-08T19:47:04.791Z,7.10
2018-09-08T19:49:33.498Z,3.73
2018-09-08T19:52:03.873Z,6.13
2018-09-08T19:54:32.624Z,7.03
2018-09-08T19:57:06.661Z,3.60
2018-09-08T19:59:35.286Z,5.13
2018-09-08T20:02:04.333Z,6.43
2018-09-08T20:04:33.564Z,8.47
2018-09-08T20:07:10.486Z,8.47
2018-09-08T20:09:39.825Z,9.37
2018-09-08T20:12:08.452Z,10.47
2018-09-08T20:14:37.247Z,10.97
2018-09-08T20:17:07.080Z,13.67
2018-09-08T20:19:35.671Z,8.80
2018-09-08T20:22:04.843Z,12.50
2018-09-08T20:24:34.263Z,5.17
2018-09-08T20:27:03.855Z,3.93
2018-09-08T20:29:32.412Z,4.22
2018-09-08T20:32:01.014Z,3.73
2018-09-08T20:34:29.750Z,3.37
2018-09-08T20:36:58.706Z,4.93
2018-09-08T20:39:28.180Z,4.77
2018-09-08T20:41:56.841Z,7.20
2018-09-08T20:44:25.560Z,3.37
2018-09-08T20:46:55.095Z,4.30
2018-09-08T20:49:26.218Z,3.90
2018-09-08T20:51:55.398Z,5.13
2018-09-08T20:54:24.081Z,4.20
2018-09-08T20:56:53.739Z,4.00
2018-09-08T20:59:22.905Z,3.97
2018-09-08T21:01:52.102Z,4.17
2018-09-08T21:04:20.664Z,3.93
2018-09-08T21:06:49.184Z,6.57
2018-09-08T21:09:18.178Z,4.90
2018-09-08T21:11:49.230Z,9.03
2018-09-08T21:14:19.537Z,4.20
2018-09-08T21:16:49.106Z,4.70
2018-09-08T21:19:19.373Z,6.27
2018-09-08T21:21:47.986Z,4.30
2018-09-08T21:24:18.752Z,8.10
2018-09-08T21:26:47.317Z,7.43
2018-09-08T21:29:18.641Z,7.97
2018-09-08T21:31:47.197Z,4.90
2018-09-08T21:34:26.660Z,4.90
2018-09-08T21:36:56.220Z,7.60
2018-09-08T21:39:24.771Z,4.93
2018-09-08T21:41:54.124Z,5.62
2018-09-08T21:44:24.147Z,5.20
2018-09-08T21:46:53.552Z,5.97
2018-09-08T21:49:22.093Z,7.97
2018-09-08T21:51:50.722Z,4.87
2018-09-08T21:54:19.258Z,6.77
2018-09-08T21:56:51.157Z,5.87
2018-09-08T21:59:21.493Z,7.47
2018-09-08T22:01:50.393Z,7.40
2018-09-08T22:04:19.072Z,3.73
2018-09-08T22:06:48.934Z,5.50
2018-09-08T22:09:18.020Z,8.13
2018-09-08T22:11:46.580Z,4.37
2018-09-08T22:14:15.095Z,5.83
2018-09-08T22:16:44.342Z,5.73
2018-09-08T22:19:14.795Z,6.23
2018-09-08T22:21:43.855Z,4.53
2018-09-08T22:24:12.449Z,4.23
2018-09-08T22:26:40.970Z,3.90
2018-09-08T22:29:09.509Z,5.83
2018-09-08T22:31:38.226Z,6.07
2018-09-08T22:34:20.653Z,3.93
2018-09-08T22:36:51.495Z,4.70
2018-09-08T22:39:20.106Z,4.70
2018-09-08T22:41:49.225Z,4.03
2018-09-08T22:44:17.802Z,7.47
2018-09-08T22:46:46.852Z,4.63
2018-09-08T22:49:15.650Z,5.40
2018-09-08T22:51:44.509Z,5.87
2018-09-08T22:54:16.286Z,3.40
2018-09-08T22:56:44.918Z,4.10
2018-09-08T22:59:13.452Z,3.17
2018-09-08T23:01:42.958Z,9.20
2018-09-08T23:04:11.478Z,6.00
2018-09-08T23:06:40.007Z,5.60
2018-09-08T23:09:08.612Z,3.60
2018-09-08T23:11:37.844Z,6.53
2018-09-08T23:14:06.765Z,2.47
2018-09-08T23:16:35.337Z,4.27
2018-09-08T23:19:03.965Z,3.30
2018-09-08T23:21:32.541Z,8.93
2018-09-08T23:24:01.094Z,3.03
2018-09-08T23:26:29.648Z,4.00
2018-09-08T23:28:58.874Z,5.10
2018-09-08T23:31:28.068Z,2.97
2018-09-08T23:33:57.737Z,3.10
2018-09-08T23:36:26.272Z,10.53
2018-09-08T23:38:54.814Z,7.60
2018-09-08T23:41:23.357Z,2.03
2018-09-08T23:43:51.909Z,5.77
2018-09-08T23:46:20.445Z,4.80
2018-09-08T23:48:49.153Z,5.57
2018-09-08T23:51:17.702Z,4.10
2018-09-08T23:53:47.122Z,3.53
2018-09-08T23:56:15.701Z,7.00
2018-09-08T23:58:44.269Z,6.70
